createdAt,value
2023-11-16T00:01:22.437Z,101080.94
2023-11-16T00:03:49.960Z,101074.94
2023-11-16T00:06:16.564Z,101079.97
2023-11-16T00:08:43.450Z,101082.72
2023-11-16T00:11:11.956Z,101086.91
2023-11-16T00:13:38.930Z,101085.31
2023-11-16T00:16:06.129Z,101086.91
2023-11-16T00:18:35.846Z,101080.28
2023-11-16T00:21:02.771Z,101083.66
2023-11-16T00:23:29.511Z,101092.25
2023-11-16T00:25:59.600Z,101087.91
2023-11-16T00:28:27.506Z,101094.03
2023-11-16T00:30:55.546Z,101094.84
2023-11-16T00:33:22.446Z,101096.63
2023-11-16T00:35:50.210Z,101102.63
2023-11-16T00:38:17.290Z,101123.34
2023-11-16T00:40:47.933Z,101112.16
2023-11-16T00:43:14.804Z,101110.69
2023-11-16T00:45:42.859Z,101114.25
2023-11-16T00:48:10.488Z,101111.00
2023-11-16T00:50:38.202Z,101119.06
2023-11-16T00:53:06.340Z,101121.81
2023-11-16T00:55:33.149Z,101125.34
2023-11-16T00:58:00.179Z,101128.09
2023-11-16T01:00:29.970Z,101130.81
2023-11-16T01:02:58.901Z,101134.41
2023-11-16T01:05:26.165Z,101134.41
2023-11-16T01:07:52.909Z,101125.00
2023-11-16T01:10:25.043Z,101138.09
2023-11-16T01:12:55.039Z,101131.59
2023-11-16T01:15:24.044Z,101135.59
2023-11-16T01:17:52.812Z,101137.34
2023-11-16T01:20:20.074Z,101132.19
2023-11-16T01:23:01.485Z,101133.97
2023-11-16T01:25:28.716Z,101134.75
2023-11-16T01:27:59.115Z,101135.59
2023-11-16T01:30:26.277Z,101132.19
2023-11-16T01:32:55.145Z,101134.94
2023-11-16T01:35:27.046Z,101137.69
2023-11-16T01:37:57.721Z,101137.81
2023-11-16T01:40:27.535Z,101137.97
2023-11-16T01:42:59.266Z,101143.13
2023-11-16T01:45:33.744Z,101148.16
2023-11-16T01:48:09.625Z,101145.56
2023-11-16T01:50:39.693Z,101146.22
2023-11-16T01:53:11.964Z,101147.03
2023-11-16T01:55:44.531Z,101143.50
2023-11-16T01:58:11.364Z,101151.13
2023-11-16T02:00:44.145Z,101142.53
2023-11-16T02:03:11.772Z,101142.41
2023-11-16T02:05:38.968Z,101141.59
2023-11-16T02:08:11.266Z,101145.13
2023-11-16T02:10:39.316Z,101145.13
2023-11-16T02:13:18.295Z,101144.19
2023-11-16T02:15:57.330Z,101147.41
2023-11-16T02:18:25.213Z,101154.38
2023-11-16T02:20:54.609Z,101159.53
2023-11-16T02:23:21.210Z,101156.00
2023-11-16T02:25:53.064Z,101153.53
2023-11-16T02:28:21.429Z,101159.53
2023-11-16T02:30:48.969Z,101163.78
2023-11-16T02:33:15.804Z,101156.81
2023-11-16T02:35:43.033Z,101157.63
2023-11-16T02:38:10.993Z,101153.25
2023-11-16T02:40:38.278Z,101161.03
2023-11-16T02:43:04.916Z,101160.22
2023-11-16T02:45:34.175Z,101158.44
2023-11-16T02:48:01.778Z,101167.03
2023-11-16T02:50:29.140Z,101165.38
2023-11-16T02:52:56.143Z,101160.22
2023-11-16T02:55:26.102Z,101163.78
2023-11-16T02:57:58.895Z,101156.97
2023-11-16T03:00:26.851Z,101162.28
2023-11-16T03:02:55.451Z,101163.13
2023-11-16T03:05:24.923Z,101167.47
2023-11-16T03:07:51.925Z,101162.44
2023-11-16T03:10:19.012Z,101169.41
2023-11-16T03:12:47.256Z,101167.63
2023-11-16T03:15:14.210Z,101168.75
2023-11-16T03:17:45.012Z,101168.22
2023-11-16T03:20:18.522Z,101176.94
2023-11-16T03:22:46.007Z,101165.94
2023-11-16T03:25:12.853Z,101165.13
2023-11-16T03:27:39.661Z,101174.81
2023-11-16T03:30:07.162Z,101176.41
2023-11-16T03:32:33.857Z,101162.66
2023-11-16T03:35:00.877Z,101171.53
2023-11-16T03:37:27.822Z,101171.69
2023-11-16T03:39:54.690Z,101165.19
2023-11-16T03:42:21.761Z,101168.38
2023-11-16T03:44:50.462Z,101169.16
2023-11-16T03:47:17.145Z,101176.13
2023-11-16T03:49:43.805Z,101172.72
2023-11-16T03:52:11.454Z,101172.84
2023-11-16T03:54:38.131Z,101177.22
2023-11-16T03:57:05.589Z,101175.59
2023-11-16T03:59:32.171Z,101179.28
2023-11-16T04:01:58.930Z,101175.88
2023-11-16T04:04:25.720Z,101179.28
2023-11-16T04:06:52.467Z,101183.63
2023-11-16T04:09:19.254Z,101178.78
2023-11-16T04:11:47.081Z,101179.72
2023-11-16T04:14:16.547Z,101183.94
2023-11-16T04:16:44.072Z,101171.28
2023-11-16T04:19:11.240Z,101173.22
2023-11-16T04:21:43.296Z,101174.16
2023-11-16T04:24:12.453Z,101178.00
2023-11-16T04:26:39.793Z,101184.56
2023-11-16T04:29:07.938Z,101182.56
2023-11-16T04:31:35.470Z,101181.50
2023-11-16T04:34:02.991Z,101193.94
2023-11-16T04:36:33.116Z,101184.97
2023-11-16T04:39:01.308Z,101190.72
2023-11-16T04:41:32.398Z,101188.56
2023-11-16T04:43:59.102Z,101191.56
2023-11-16T04:46:28.665Z,101198.25
2023-11-16T04:48:56.591Z,101190.25
2023-11-16T04:51:25.637Z,101188.75
2023-11-16T04:53:52.487Z,101185.59
2023-11-16T04:56:19.290Z,101182.63
2023-11-16T04:58:46.397Z,101172.59
2023-11-16T05:01:17.963Z,101175.44
2023-11-16T05:03:49.043Z,101172.47
2023-11-16T05:06:16.512Z,101176.28
2023-11-16T05:08:43.653Z,101181.88
2023-11-16T05:11:10.673Z,101184.22
2023-11-16T05:13:37.438Z,101186.38
2023-11-16T05:16:07.158Z,101186.13
2023-11-16T05:18:35.291Z,101189.25
2023-11-16T05:21:02.936Z,101183.69
2023-11-16T05:23:29.625Z,101189.28
2023-11-16T05:25:58.287Z,101185.19
2023-11-16T05:28:27.291Z,101189.69
2023-11-16T05:30:54.468Z,101191.72
2023-11-16T05:33:24.220Z,101186.13
2023-11-16T05:35:55.031Z,101185.72
2023-11-16T05:38:23.308Z,101194.69
2023-11-16T05:40:53.658Z,101194.44
2023-11-16T05:43:21.476Z,101195.78
2023-11-16T05:45:48.728Z,101202.06
2023-11-16T05:48:16.480Z,101197.97
2023-11-16T05:50:44.027Z,101202.56
2023-11-16T05:53:11.350Z,101199.31
2023-11-16T05:55:38.558Z,101198.06
2023-11-16T05:58:08.299Z,101197.53
2023-11-16T06:00:38.780Z,101208.09
2023-11-16T06:03:06.755Z,101204.16
2023-11-16T06:05:34.781Z,101197.66
2023-11-16T06:08:01.493Z,101201.31
2023-11-16T06:10:28.665Z,101199.81
2023-11-16T06:12:59.274Z,101201.72
2023-11-16T06:15:29.829Z,101205.38
2023-11-16T06:17:59.145Z,101205.75
2023-11-16T06:20:26.163Z,101205.19
2023-11-16T06:22:52.764Z,101210.50
2023-11-16T06:25:19.438Z,101208.06
2023-11-16T06:27:47.195Z,101215.78
2023-11-16T06:30:14.915Z,101211.16
2023-11-16T06:32:43.818Z,101210.09
2023-11-16T06:35:11.599Z,101215.00
2023-11-16T06:37:39.158Z,101217.03
2023-11-16T06:40:08.597Z,101222.63
2023-11-16T06:42:37.470Z,101221.41
2023-11-16T06:45:08.780Z,101214.91
2023-11-16T06:47:36.248Z,101217.91
2023-11-16T06:50:07.038Z,101215.03
2023-11-16T06:52:37.621Z,101216.53
2023-11-16T06:55:05.749Z,101211.13
2023-11-16T06:57:32.558Z,101216.81
2023-11-16T06:59:59.271Z,101212.38
2023-11-16T07:02:25.999Z,101208.69
2023-11-16T07:04:52.703Z,101214.53
2023-11-16T07:07:19.433Z,101209.09
2023-11-16T07:09:51.614Z,101210.44
2023-11-16T07:12:22.718Z,101204.09
2023-11-16T07:14:53.894Z,101202.19
2023-11-16T07:17:21.829Z,101203.69
2023-11-16T07:19:49.454Z,101197.56
2023-11-16T07:22:16.137Z,101188.59
2023-11-16T07:24:45.656Z,101198.53
2023-11-16T07:27:13.686Z,101196.47
2023-11-16T07:29:44.458Z,101194.44
2023-11-16T07:32:12.592Z,101186.41
2023-11-16T07:34:40.655Z,101180.97
2023-11-16T07:37:07.692Z,101184.91
2023-11-16T07:39:34.807Z,101179.47
2023-11-16T07:42:03.568Z,101176.75
2023-11-16T07:44:31.018Z,101176.63
2023-11-16T07:46:57.819Z,101179.31
2023-11-16T07:49:24.530Z,101180.97
2023-11-16T07:51:55.168Z,101195.38
2023-11-16T07:54:23.033Z,101189.53
2023-11-16T07:56:56.510Z,101193.56
2023-11-16T07:59:35.651Z,101186.38
2023-11-16T08:02:02.998Z,101181.75
2023-11-16T08:04:30.938Z,101173.88
2023-11-16T08:06:59.640Z,101168.41
2023-11-16T08:09:28.114Z,101181.06
2023-11-16T08:11:55.381Z,101176.28
2023-11-16T08:14:27.011Z,101183.50
2023-11-16T08:16:58.636Z,101182.03
2023-11-16T08:19:32.770Z,101171.00
2023-11-16T08:22:02.899Z,101169.13
2023-11-16T08:24:30.003Z,101172.63
2023-11-16T08:26:58.379Z,101165.97
2023-11-16T08:29:25.952Z,101163.53
2023-11-16T08:31:58.241Z,101163.13
2023-11-16T08:34:30.267Z,101161.72
2023-11-16T08:36:57.355Z,101163.88
2023-11-16T08:39:24.993Z,101172.88
2023-11-16T08:41:54.123Z,101188.22
2023-11-16T08:44:21.101Z,101190.78
2023-11-16T08:46:54.127Z,101189.84
2023-11-16T08:49:24.339Z,101185.50
2023-11-16T08:52:00.803Z,101200.72
2023-11-16T08:54:29.493Z,101198.00
2023-11-16T08:56:57.430Z,101191.19
2023-11-16T08:59:24.543Z,101189.69
2023-11-16T09:01:51.307Z,101190.13
2023-11-16T09:04:19.099Z,101176.09
2023-11-16T09:06:46.024Z,101170.63
2023-11-16T09:09:31.760Z,101163.41
2023-11-16T09:11:58.686Z,101158.25
2023-11-16T09:14:27.838Z,101143.69
2023-11-16T09:17:09.554Z,101143.81
2023-11-16T09:19:39.623Z,101134.81
2023-11-16T09:22:07.888Z,101135.88
2023-11-16T09:24:38.089Z,101136.41
2023-11-16T09:27:05.828Z,101141.16
2023-11-16T09:29:34.447Z,101136.50
2023-11-16T09:32:01.127Z,101132.66
2023-11-16T09:34:28.415Z,101131.72
2023-11-16T09:36:55.101Z,101133.47
2023-11-16T09:39:23.567Z,101137.03
2023-11-16T09:41:50.862Z,101143.16
2023-11-16T09:44:19.804Z,101135.41
2023-11-16T09:46:48.108Z,101136.88
2023-11-16T09:49:18.729Z,101140.56
2023-11-16T09:51:47.217Z,101141.38
2023-11-16T09:54:15.261Z,101135.41
2023-11-16T09:56:46.596Z,101131.19
2023-11-16T09:59:16.729Z,101132.97
2023-11-16T10:01:54.497Z,101137.03
2023-11-16T10:04:21.398Z,101139.31
2023-11-16T10:06:52.056Z,101137.81
2023-11-16T10:09:19.149Z,101137.53
2023-11-16T10:11:45.822Z,101132.53
2023-11-16T10:14:13.587Z,101138.22
2023-11-16T10:16:40.539Z,101141.03
2023-11-16T10:19:11.951Z,101133.53
2023-11-16T10:21:44.454Z,101134.47
2023-11-16T10:24:11.647Z,101135.94
2023-11-16T10:26:40.768Z,101133.38
2023-11-16T10:29:08.063Z,101128.34
2023-11-16T10:31:35.638Z,101125.44
2023-11-16T10:34:04.906Z,101119.44
2023-11-16T10:36:33.517Z,101112.38
2023-11-16T10:39:02.122Z,101099.81
2023-11-16T10:41:30.696Z,101104.53
2023-11-16T10:43:59.197Z,101091.16
2023-11-16T10:46:31.175Z,101088.44
2023-11-16T10:48:58.784Z,101085.69
2023-11-16T10:51:27.465Z,101077.56
2023-11-16T10:53:56.880Z,101081.78
2023-11-16T10:56:24.592Z,101076.44
2023-11-16T10:58:53.208Z,101074.69
2023-11-16T11:01:20.921Z,101076.16
2023-11-16T11:03:52.447Z,101078.47
2023-11-16T11:06:21.370Z,101075.53
2023-11-16T11:08:50.202Z,101060.56
2023-11-16T11:11:26.187Z,101064.47
2023-11-16T11:13:56.150Z,101056.97
2023-11-16T11:16:26.772Z,101052.63
2023-11-16T11:18:54.497Z,101045.97
2023-11-16T11:21:24.072Z,101038.38
2023-11-16T11:24:07.541Z,101036.72
2023-11-16T11:26:51.822Z,101036.41
2023-11-16T11:29:25.115Z,101026.84
2023-11-16T11:32:07.295Z,101029.63
2023-11-16T11:34:38.366Z,101020.75
2023-11-16T11:37:09.060Z,101015.75
2023-11-16T11:39:42.655Z,101008.13
2023-11-16T11:42:11.381Z,100996.50
2023-11-16T11:44:38.395Z,101000.28
2023-11-16T11:47:07.445Z,100999.00
2023-11-16T11:49:35.192Z,100993.38
2023-11-16T11:52:04.143Z,101000.97
2023-11-16T11:54:38.046Z,101000.22
2023-11-16T11:57:06.528Z,100995.84
2023-11-16T11:59:33.702Z,100996.66
2023-11-16T12:02:11.882Z,100994.38
2023-11-16T12:04:40.700Z,100996.31
2023-11-16T12:07:08.934Z,100994.19
2023-11-16T12:09:40.239Z,100992.25
2023-11-16T12:12:08.349Z,100994.38
2023-11-16T12:14:44.814Z,100988.19
2023-11-16T12:17:14.344Z,100984.94
2023-11-16T12:19:50.147Z,100984.78
2023-11-16T12:22:19.072Z,100988.84
2023-11-16T12:24:51.207Z,100980.44
2023-11-16T12:27:18.360Z,100977.50
2023-11-16T12:29:55.918Z,100977.88
2023-11-16T12:32:22.936Z,100982.59
2023-11-16T12:34:50.969Z,100970.47
2023-11-16T12:37:18.097Z,100966.25
2023-11-16T12:39:44.890Z,100962.84
2023-11-16T12:42:12.497Z,100957.34
2023-11-16T12:44:39.140Z,100957.03
2023-11-16T12:47:05.867Z,100944.09
2023-11-16T12:49:32.680Z,100941.88
2023-11-16T12:51:59.421Z,100933.13
2023-11-16T12:54:26.129Z,100927.97
2023-11-16T12:56:54.307Z,100928.09
2023-11-16T12:59:22.746Z,100919.84
2023-11-16T13:01:49.570Z,100914.47
2023-11-16T13:04:17.284Z,100910.56
2023-11-16T13:06:44.107Z,100905.53
2023-11-16T13:09:12.111Z,100894.66
2023-11-16T13:11:38.853Z,100894.47
2023-11-16T13:14:06.749Z,100890.94
2023-11-16T13:16:36.478Z,100886.22
2023-11-16T13:19:06.698Z,100884.09
2023-11-16T13:21:34.351Z,100882.94
2023-11-16T13:24:00.987Z,100887.16
2023-11-16T13:26:27.848Z,100873.09
2023-11-16T13:28:55.783Z,100871.63
2023-11-16T13:31:23.738Z,100873.69
2023-11-16T13:33:50.535Z,100869.50
2023-11-16T13:36:17.335Z,100874.81
2023-11-16T13:38:44.650Z,100875.63
2023-11-16T13:41:13.470Z,100877.41
2023-11-16T13:43:40.731Z,100881.13
2023-11-16T13:46:07.583Z,100877.22
2023-11-16T13:48:34.557Z,100878.19
2023-11-16T13:51:01.633Z,100876.72
2023-11-16T13:53:29.959Z,100879.31
2023-11-16T13:55:58.137Z,100873.97
2023-11-16T13:58:25.138Z,100859.72
2023-11-16T14:00:52.990Z,100858.25
2023-11-16T14:03:21.469Z,100854.38
2023-11-16T14:05:48.627Z,100852.06
2023-11-16T14:08:15.250Z,100846.91
2023-11-16T14:10:42.090Z,100853.03
2023-11-16T14:13:09.856Z,100853.47
2023-11-16T14:15:37.546Z,100850.56
2023-11-16T14:18:04.320Z,100852.94
2023-11-16T14:20:31.093Z,100855.03
2023-11-16T14:22:57.830Z,100843.19
2023-11-16T14:25:30.751Z,100840.78
2023-11-16T14:28:04.100Z,100840.13
2023-11-16T14:30:31.018Z,100850.22
2023-11-16T14:32:57.956Z,100852.47
2023-11-16T14:35:26.819Z,100845.19
2023-11-16T14:37:54.523Z,100846.41
2023-11-16T14:40:21.621Z,100849.16
2023-11-16T14:42:48.719Z,100851.91
2023-11-16T14:45:15.469Z,100853.31
2023-11-16T14:47:42.423Z,100856.97
2023-11-16T14:50:15.774Z,100869.41
2023-11-16T14:52:43.711Z,100864.22
2023-11-16T14:55:11.301Z,100868.41
2023-11-16T14:57:41.309Z,100869.06
2023-11-16T15:00:17.978Z,100870.06
2023-11-16T15:02:44.809Z,100864.22
2023-11-16T15:05:14.271Z,100865.34
2023-11-16T15:07:43.482Z,100868.03
2023-11-16T15:10:12.385Z,100871.75
2023-11-16T15:12:40.716Z,100875.28
2023-11-16T15:15:10.703Z,100880.75
2023-11-16T15:17:39.138Z,100889.31
2023-11-16T15:20:16.133Z,100884.16
2023-11-16T15:22:53.590Z,100888.28
2023-11-16T15:25:20.378Z,100887.34
2023-11-16T15:27:47.122Z,100883.13
2023-11-16T15:30:15.166Z,100890.88
2023-11-16T15:32:42.354Z,100892.63
2023-11-16T15:35:09.736Z,100884.22
2023-11-16T15:37:37.373Z,100891.59
2023-11-16T15:40:06.383Z,100888.50
2023-11-16T15:42:34.171Z,100893.94
2023-11-16T15:45:01.154Z,100886.53
2023-11-16T15:47:28.192Z,100892.91
2023-11-16T15:49:55.067Z,100890.75
2023-11-16T15:52:23.957Z,100887.84
2023-11-16T15:54:51.913Z,100884.56
2023-11-16T15:57:19.867Z,100884.03
2023-11-16T15:59:47.983Z,100893.84
2023-11-16T16:02:14.772Z,100892.50
2023-11-16T16:04:41.650Z,100888.59
2023-11-16T16:07:08.458Z,100890.63
2023-11-16T16:09:35.387Z,100893.53
2023-11-16T16:12:02.236Z,100896.38
2023-11-16T16:14:28.935Z,100900.06
2023-11-16T16:16:58.040Z,100905.22
2023-11-16T16:19:26.378Z,100896.81
2023-11-16T16:21:53.519Z,100899.66
2023-11-16T16:24:20.248Z,100899.97
2023-11-16T16:26:47.785Z,100896.03
2023-11-16T16:29:14.851Z,100906.66
2023-11-16T16:31:42.472Z,100898.38
2023-11-16T16:34:14.499Z,100897.72
2023-11-16T16:36:42.297Z,100899.47
2023-11-16T16:39:15.566Z,100905.72
2023-11-16T16:41:47.558Z,100904.28
2023-11-16T16:44:14.367Z,100899.22
2023-11-16T16:46:46.157Z,100906.31
2023-11-16T16:49:16.501Z,100913.53
2023-11-16T16:51:46.524Z,100912.03
2023-11-16T16:54:16.911Z,100914.88
2023-11-16T16:56:48.910Z,100912.88
2023-11-16T16:59:16.220Z,100915.72
2023-11-16T17:01:43.705Z,100913.56
2023-11-16T17:04:10.665Z,100919.81
2023-11-16T17:06:38.379Z,100921.88
2023-11-16T17:09:13.953Z,100923.06
2023-11-16T17:11:40.660Z,100927.56
2023-11-16T17:14:07.675Z,100931.38
2023-11-16T17:16:34.295Z,100938.56
2023-11-16T17:19:02.147Z,100940.34
2023-11-16T17:21:28.873Z,100944.13
2023-11-16T17:23:55.904Z,100945.09
2023-11-16T17:26:22.807Z,100953.66
2023-11-16T17:28:50.152Z,100949.28
2023-11-16T17:31:18.327Z,100942.50
2023-11-16T17:33:45.381Z,100951.06
2023-11-16T17:36:13.251Z,100955.56
2023-11-16T17:38:39.857Z,100952.16
2023-11-16T17:41:07.154Z,100958.25
2023-11-16T17:43:41.035Z,100958.38
2023-11-16T17:46:08.907Z,100961.91
2023-11-16T17:48:35.933Z,100967.06
2023-11-16T17:51:05.491Z,100961.22
2023-11-16T17:53:33.427Z,100966.38
2023-11-16T17:56:01.532Z,100961.22
2023-11-16T17:58:28.244Z,100963.81
2023-11-16T18:00:55.091Z,100963.13
2023-11-16T18:03:21.925Z,100971.81
2023-11-16T18:05:48.664Z,100962.47
2023-11-16T18:08:15.552Z,100965.72
2023-11-16T18:10:49.804Z,100960.97
2023-11-16T18:13:18.056Z,100959.47
2023-11-16T18:15:45.334Z,100965.69
2023-11-16T18:18:12.399Z,100961.09
2023-11-16T18:20:41.360Z,100962.84
2023-11-16T18:23:09.661Z,100964.59
2023-11-16T18:25:41.697Z,100972.75
2023-11-16T18:28:15.049Z,100966.78
2023-11-16T18:30:47.844Z,100974.63
2023-11-16T18:33:17.281Z,100971.13
2023-11-16T18:35:45.813Z,100969.38
2023-11-16T18:38:13.535Z,100982.25
2023-11-16T18:40:41.462Z,100977.88
2023-11-16T18:43:12.106Z,100974.22
2023-11-16T18:45:39.283Z,100969.22
2023-11-16T18:48:10.491Z,100982.25
2023-11-16T18:50:38.395Z,100969.38
2023-11-16T18:53:05.154Z,100972.63
2023-11-16T18:55:32.031Z,100964.91
2023-11-16T18:57:58.735Z,100964.91
2023-11-16T19:00:26.656Z,100976.13
2023-11-16T19:02:54.088Z,100973.69
2023-11-16T19:05:22.217Z,100975.31
2023-11-16T19:07:52.003Z,100983.84
2023-11-16T19:10:21.912Z,100981.44
2023-11-16T19:12:48.887Z,100984.94
2023-11-16T19:15:15.610Z,100990.91
2023-11-16T19:17:42.655Z,100982.38
2023-11-16T19:20:15.195Z,100980.75
2023-11-16T19:22:42.672Z,100987.53
2023-11-16T19:25:09.472Z,100986.84
2023-11-16T19:27:36.595Z,100983.44
2023-11-16T19:30:03.983Z,100985.34
2023-11-16T19:32:32.546Z,100981.00
2023-11-16T19:35:00.327Z,100975.84
2023-11-16T19:37:27.015Z,100985.34
2023-11-16T19:39:53.599Z,100986.31
2023-11-16T19:42:21.461Z,100988.06
2023-11-16T19:44:48.157Z,100987.38
2023-11-16T19:47:22.978Z,100993.47
2023-11-16T19:49:52.614Z,100996.19
2023-11-16T19:52:19.389Z,100998.09
2023-11-16T19:54:46.142Z,101001.59
2023-11-16T19:57:14.194Z,101006.75
2023-11-16T19:59:40.969Z,101009.47
2023-11-16T20:02:11.712Z,101006.22
2023-11-16T20:04:40.148Z,101009.03
2023-11-16T20:07:07.499Z,101013.38
2023-11-16T20:09:36.605Z,101016.91
2023-11-16T20:12:03.715Z,101021.38
2023-11-16T20:14:31.816Z,101018.09
2023-11-16T20:16:58.598Z,101019.88
2023-11-16T20:19:25.375Z,101011.47
2023-11-16T20:21:55.038Z,101014.16
2023-11-16T20:24:22.811Z,101018.63
2023-11-16T20:26:51.968Z,101019.56
2023-11-16T20:29:18.636Z,101018.75
2023-11-16T20:31:45.232Z,101014.69
2023-11-16T20:34:15.907Z,101030.00
2023-11-16T20:36:42.640Z,101025.91
2023-11-16T20:39:13.247Z,101026.97
2023-11-16T20:41:43.715Z,101034.00
2023-11-16T20:44:10.797Z,101041.19
2023-11-16T20:46:39.559Z,101045.75
2023-11-16T20:49:06.440Z,101037.22
2023-11-16T20:51:33.070Z,101039.09
2023-11-16T20:53:59.767Z,101044.38
2023-11-16T20:56:26.384Z,101052.25
2023-11-16T20:58:53.003Z,101053.19
2023-11-16T21:01:19.674Z,101061.03
2023-11-16T21:03:46.617Z,101065.50
2023-11-16T21:06:13.427Z,101069.13
2023-11-16T21:08:40.184Z,101061.53
2023-11-16T21:11:08.987Z,101066.81
2023-11-16T21:13:41.374Z,101070.31
2023-11-16T21:16:11.311Z,101070.59
2023-11-16T21:18:38.469Z,101072.47
2023-11-16T21:21:05.824Z,101082.88
2023-11-16T21:23:38.044Z,101075.44
2023-11-16T21:26:05.717Z,101075.53
2023-11-16T21:28:32.367Z,101074.03
2023-11-16T21:30:59.132Z,101077.56
2023-11-16T21:33:25.936Z,101093.00
2023-11-16T21:35:52.552Z,101083.91
2023-11-16T21:38:19.441Z,101087.53
2023-11-16T21:40:46.051Z,101100.41
2023-11-16T21:43:13.664Z,101100.50
2023-11-16T21:45:41.138Z,101097.16
2023-11-16T21:48:08.089Z,101109.28
2023-11-16T21:50:37.841Z,101107.00
2023-11-16T21:53:10.135Z,101113.28
2023-11-16T21:55:37.000Z,101128.88
2023-11-16T21:58:03.642Z,101121.97
2023-11-16T22:00:30.299Z,101125.47
2023-11-16T22:02:57.140Z,101128.31
2023-11-16T22:05:24.679Z,101129.38
2023-11-16T22:07:51.264Z,101131.25
2023-11-16T22:10:19.621Z,101135.56
2023-11-16T22:12:50.025Z,101133.91
2023-11-16T22:15:18.200Z,101140.13
2023-11-16T22:17:47.128Z,101153.94
2023-11-16T22:20:16.454Z,101148.34
2023-11-16T22:22:44.612Z,101156.88
2023-11-16T22:25:11.463Z,101154.53
2023-11-16T22:27:40.074Z,101152.91
2023-11-16T22:30:18.944Z,101159.22
2023-11-16T22:32:46.001Z,101155.97
2023-11-16T22:35:13.140Z,101158.53
2023-11-16T22:37:40.911Z,101169.78
2023-11-16T22:40:12.532Z,101167.44
2023-11-16T22:42:39.604Z,101179.69
2023-11-16T22:45:11.371Z,101181.81
2023-11-16T22:47:38.738Z,101187.19
2023-11-16T22:50:08.721Z,101191.66
2023-11-16T22:52:36.999Z,101191.66
2023-11-16T22:55:04.886Z,101195.13
2023-11-16T22:57:31.845Z,101193.53
2023-11-16T22:59:58.499Z,101186.16
2023-11-16T23:02:25.297Z,101193.19
2023-11-16T23:04:52.005Z,101195.84
2023-11-16T23:07:19.879Z,101194.31
2023-11-16T23:09:46.673Z,101192.81
2023-11-16T23:12:13.453Z,101193.75
2023-11-16T23:14:40.068Z,101204.25
2023-11-16T23:17:10.809Z,101206.00
2023-11-16T23:19:40.586Z,101204.41
2023-11-16T23:22:13.937Z,101205.56
2023-11-16T23:24:42.488Z,101205.78
2023-11-16T23:27:12.040Z,101209.28
2023-11-16T23:29:39.231Z,101217.34
2023-11-16T23:32:07.244Z,101218.38
2023-11-16T23:34:37.746Z,101219.34
2023-11-16T23:37:05.024Z,101224.69
2023-11-16T23:39:31.611Z,101221.31
2023-11-16T23:41:59.079Z,101229.25
2023-11-16T23:44:28.996Z,101233.78
2023-11-16T23:46:56.497Z,101235.78
2023-11-16T23:49:23.875Z,101233.44
2023-11-16T23:51:51.436Z,101230.88
2023-11-16T23:54:18.172Z,101235.31
2023-11-16T23:56:44.974Z,101230.31
2023-11-16T23:59:13.487Z,101239.84
